sensor_id;sensor_type;location;lat;lon;timestamp;P1;durP1;ratioP1;P2;durP2;ratioP2
41927;SDS011;27616;51.420;6.788;2023-07-22T00:01:00;8.98;;;4.32;;
41927;SDS011;27616;51.420;6.788;2023-07-22T00:03:25;10.30;;;4.72;;
41927;SDS011;27616;51.420;6.788;2023-07-22T00:06:12;11.27;;;4.90;;
41927;SDS011;27616;51.420;6.788;2023-07-22T00:08:37;9.05;;;4.50;;
41927;SDS011;27616;51.420;6.788;2023-07-22T00:11:04;11.02;;;4.70;;
41927;SDS011;27616;51.420;6.788;2023-07-22T00:13:30;9.93;;;4.60;;
41927;SDS011;27616;51.420;6.788;2023-07-22T00:15:57;9.95;;;4.78;;
41927;SDS011;27616;51.420;6.788;2023-07-22T00:18:24;8.68;;;4.40;;
41927;SDS011;27616;51.420;6.788;2023-07-22T00:20:52;9.63;;;4.13;;
41927;SDS011;27616;51.420;6.788;2023-07-22T00:23:18;10.43;;;4.40;;
41927;SDS011;27616;51.420;6.788;2023-07-22T00:25:45;8.02;;;4.38;;
41927;SDS011;27616;51.420;6.788;2023-07-22T00:28:13;10.70;;;4.20;;
41927;SDS011;27616;51.420;6.788;2023-07-22T00:30:39;8.38;;;4.43;;
41927;SDS011;27616;51.420;6.788;2023-07-22T00:33:06;8.55;;;4.35;;
41927;SDS011;27616;51.420;6.788;2023-07-22T00:35:32;9.13;;;4.05;;
41927;SDS011;27616;51.420;6.788;2023-07-22T00:37:58;8.82;;;3.95;;
41927;SDS011;27616;51.420;6.788;2023-07-22T00:40:25;8.70;;;4.25;;
41927;SDS011;27616;51.420;6.788;2023-07-22T00:42:50;9.82;;;4.65;;
41927;SDS011;27616;51.420;6.788;2023-07-22T00:45:16;7.38;;;4.18;;
41927;SDS011;27616;51.420;6.788;2023-07-22T00:47:42;9.75;;;4.43;;
41927;SDS011;27616;51.420;6.788;2023-07-22T00:50:09;8.43;;;4.10;;
41927;SDS011;27616;51.420;6.788;2023-07-22T00:52:35;10.27;;;4.75;;
41927;SDS011;27616;51.420;6.788;2023-07-22T00:55:02;9.00;;;4.13;;
41927;SDS011;27616;51.420;6.788;2023-07-22T00:57:30;8.23;;;4.00;;
41927;SDS011;27616;51.420;6.788;2023-07-22T00:59:56;8.38;;;4.50;;
41927;SDS011;27616;51.420;6.788;2023-07-22T01:02:22;11.02;;;4.05;;
41927;SDS011;27616;51.420;6.788;2023-07-22T01:04:48;8.52;;;4.25;;
41927;SDS011;27616;51.420;6.788;2023-07-22T01:07:15;7.95;;;4.25;;
41927;SDS011;27616;51.420;6.788;2023-07-22T01:09:42;11.25;;;4.82;;
41927;SDS011;27616;51.420;6.788;2023-07-22T01:12:08;8.35;;;4.00;;
41927;SDS011;27616;51.420;6.788;2023-07-22T01:14:39;8.88;;;4.47;;
41927;SDS011;27616;51.420;6.788;2023-07-22T01:17:07;9.23;;;3.75;;
41927;SDS011;27616;51.420;6.788;2023-07-22T01:19:34;7.82;;;3.78;;
41927;SDS011;27616;51.420;6.788;2023-07-22T01:22:01;9.70;;;4.22;;
41927;SDS011;27616;51.420;6.788;2023-07-22T01:24:28;9.93;;;4.78;;
41927;SDS011;27616;51.420;6.788;2023-07-22T01:26:54;14.07;;;4.30;;
41927;SDS011;27616;51.420;6.788;2023-07-22T01:29:21;7.18;;;3.60;;
41927;SDS011;27616;51.420;6.788;2023-07-22T01:31:48;8.27;;;4.13;;
41927;SDS011;27616;51.420;6.788;2023-07-22T01:34:15;9.17;;;4.77;;
41927;SDS011;27616;51.420;6.788;2023-07-22T01:36:42;10.60;;;4.82;;
41927;SDS011;27616;51.420;6.788;2023-07-22T01:39:08;8.88;;;4.97;;
41927;SDS011;27616;51.420;6.788;2023-07-22T01:41:35;8.57;;;4.05;;
41927;SDS011;27616;51.420;6.788;2023-07-22T01:44:02;8.27;;;4.00;;
41927;SDS011;27616;51.420;6.788;2023-07-22T01:46:27;10.73;;;4.80;;
41927;SDS011;27616;51.420;6.788;2023-07-22T01:48:53;9.05;;;4.35;;
41927;SDS011;27616;51.420;6.788;2023-07-22T01:51:20;9.35;;;4.95;;
41927;SDS011;27616;51.420;6.788;2023-07-22T01:53:45;8.52;;;4.45;;
41927;SDS011;27616;51.420;6.788;2023-07-22T01:56:11;8.38;;;4.45;;
41927;SDS011;27616;51.420;6.788;2023-07-22T01:58:37;9.10;;;4.72;;
41927;SDS011;27616;51.420;6.788;2023-07-22T02:01:02;9.55;;;4.57;;
41927;SDS011;27616;51.420;6.788;2023-07-22T02:03:28;9.57;;;4.60;;
41927;SDS011;27616;51.420;6.788;2023-07-22T02:05:54;7.18;;;4.43;;
41927;SDS011;27616;51.420;6.788;2023-07-22T02:08:26;8.63;;;4.47;;
41927;SDS011;27616;51.420;6.788;2023-07-22T02:10:52;8.63;;;4.15;;
41927;SDS011;27616;51.420;6.788;2023-07-22T02:13:18;9.93;;;4.38;;
41927;SDS011;27616;51.420;6.788;2023-07-22T02:15:43;8.82;;;4.93;;
41927;SDS011;27616;51.420;6.788;2023-07-22T02:18:09;8.32;;;4.40;;
41927;SDS011;27616;51.420;6.788;2023-07-22T02:20:35;7.78;;;4.38;;
41927;SDS011;27616;51.420;6.788;2023-07-22T02:23:00;10.32;;;5.47;;
41927;SDS011;27616;51.420;6.788;2023-07-22T02:25:26;11.10;;;4.70;;
41927;SDS011;27616;51.420;6.788;2023-07-22T02:27:51;8.18;;;4.07;;
41927;SDS011;27616;51.420;6.788;2023-07-22T02:30:17;12.30;;;4.15;;
41927;SDS011;27616;51.420;6.788;2023-07-22T02:32:43;10.50;;;4.28;;
41927;SDS011;27616;51.420;6.788;2023-07-22T02:35:09;10.18;;;4.82;;
41927;SDS011;27616;51.420;6.788;2023-07-22T02:37:36;7.93;;;4.32;;
41927;SDS011;27616;51.420;6.788;2023-07-22T02:40:03;11.55;;;4.55;;
41927;SDS011;27616;51.420;6.788;2023-07-22T02:42:35;8.85;;;4.07;;
41927;SDS011;27616;51.420;6.788;2023-07-22T02:45:01;13.10;;;4.63;;
41927;SDS011;27616;51.420;6.788;2023-07-22T02:47:27;8.35;;;4.32;;
41927;SDS011;27616;51.420;6.788;2023-07-22T02:49:53;8.73;;;4.25;;
41927;SDS011;27616;51.420;6.788;2023-07-22T02:52:19;10.45;;;3.95;;
41927;SDS011;27616;51.420;6.788;2023-07-22T02:55:03;8.98;;;3.85;;
41927;SDS011;27616;51.420;6.788;2023-07-22T02:57:48;8.75;;;4.20;;
41927;SDS011;27616;51.420;6.788;2023-07-22T03:00:15;10.50;;;4.30;;
41927;SDS011;27616;51.420;6.788;2023-07-22T03:02:49;7.80;;;4.20;;
41927;SDS011;27616;51.420;6.788;2023-07-22T03:05:17;9.15;;;4.10;;
41927;SDS011;27616;51.420;6.788;2023-07-22T03:07:43;7.68;;;3.55;;
41927;SDS011;27616;51.420;6.788;2023-07-22T03:10:09;9.20;;;3.90;;
41927;SDS011;27616;51.420;6.788;2023-07-22T03:12:35;8.52;;;3.78;;
41927;SDS011;27616;51.420;6.788;2023-07-22T03:15:01;10.25;;;4.50;;
41927;SDS011;27616;51.420;6.788;2023-07-22T03:17:29;10.02;;;3.85;;
41927;SDS011;27616;51.420;6.788;2023-07-22T03:19:54;7.97;;;4.07;;
41927;SDS011;27616;51.420;6.788;2023-07-22T03:22:20;8.60;;;3.95;;
41927;SDS011;27616;51.420;6.788;2023-07-22T03:24:46;6.97;;;3.47;;
41927;SDS011;27616;51.420;6.788;2023-07-22T03:27:12;9.52;;;3.90;;
41927;SDS011;27616;51.420;6.788;2023-07-22T03:29:38;8.63;;;3.83;;
41927;SDS011;27616;51.420;6.788;2023-07-22T03:32:04;7.15;;;3.67;;
41927;SDS011;27616;51.420;6.788;2023-07-22T03:34:30;9.23;;;4.10;;
41927;SDS011;27616;51.420;6.788;2023-07-22T03:36:57;11.70;;;4.57;;
41927;SDS011;27616;51.420;6.788;2023-07-22T03:39:23;10.73;;;4.32;;
41927;SDS011;27616;51.420;6.788;2023-07-22T03:41:49;8.38;;;3.92;;
41927;SDS011;27616;51.420;6.788;2023-07-22T03:44:15;7.97;;;3.88;;
41927;SDS011;27616;51.420;6.788;2023-07-22T03:46:41;9.55;;;4.15;;
41927;SDS011;27616;51.420;6.788;2023-07-22T03:49:06;9.75;;;4.15;;
41927;SDS011;27616;51.420;6.788;2023-07-22T03:51:32;8.10;;;3.80;;
41927;SDS011;27616;51.420;6.788;2023-07-22T03:53:58;8.57;;;4.07;;
41927;SDS011;27616;51.420;6.788;2023-07-22T03:56:25;7.75;;;3.65;;
41927;SDS011;27616;51.420;6.788;2023-07-22T03:58:50;8.70;;;3.95;;
41927;SDS011;27616;51.420;6.788;2023-07-22T04:01:17;7.15;;;3.28;;
41927;SDS011;27616;51.420;6.788;2023-07-22T04:03:43;8.27;;;4.10;;
41927;SDS011;27616;51.420;6.788;2023-07-22T04:06:08;9.82;;;3.50;;
41927;SDS011;27616;51.420;6.788;2023-07-22T04:08:34;6.68;;;3.58;;
41927;SDS011;27616;51.420;6.788;2023-07-22T04:11:00;7.53;;;3.50;;
41927;SDS011;27616;51.420;6.788;2023-07-22T04:13:26;10.18;;;4.00;;
41927;SDS011;27616;51.420;6.788;2023-07-22T04:15:52;6.95;;;3.35;;
41927;SDS011;27616;51.420;6.788;2023-07-22T04:18:19;10.45;;;3.53;;
41927;SDS011;27616;51.420;6.788;2023-07-22T04:20:45;8.52;;;3.45;;
41927;SDS011;27616;51.420;6.788;2023-07-22T04:23:15;7.47;;;3.50;;
41927;SDS011;27616;51.420;6.788;2023-07-22T04:25:41;6.60;;;3.53;;
41927;SDS011;27616;51.420;6.788;2023-07-22T04:28:07;8.27;;;3.88;;
41927;SDS011;27616;51.420;6.788;2023-07-22T04:30:33;7.97;;;3.60;;
41927;SDS011;27616;51.420;6.788;2023-07-22T04:33:00;9.40;;;3.45;;
41927;SDS011;27616;51.420;6.788;2023-07-22T04:35:25;6.80;;;3.35;;
41927;SDS011;27616;51.420;6.788;2023-07-22T04:37:51;9.30;;;3.83;;
41927;SDS011;27616;51.420;6.788;2023-07-22T04:40:16;7.82;;;3.50;;
41927;SDS011;27616;51.420;6.788;2023-07-22T04:42:43;8.93;;;3.88;;
41927;SDS011;27616;51.420;6.788;2023-07-22T04:45:10;6.70;;;3.53;;
41927;SDS011;27616;51.420;6.788;2023-07-22T04:47:39;8.48;;;3.70;;
41927;SDS011;27616;51.420;6.788;2023-07-22T04:50:05;6.82;;;3.40;;
41927;SDS011;27616;51.420;6.788;2023-07-22T04:52:34;9.10;;;3.80;;
41927;SDS011;27616;51.420;6.788;2023-07-22T04:55:03;9.93;;;3.50;;
41927;SDS011;27616;51.420;6.788;2023-07-22T04:57:34;8.85;;;3.38;;
41927;SDS011;27616;51.420;6.788;2023-07-22T05:00:01;6.47;;;3.28;;
41927;SDS011;27616;51.420;6.788;2023-07-22T05:02:30;7.88;;;3.65;;
41927;SDS011;27616;51.420;6.788;2023-07-22T05:04:57;8.65;;;4.50;;
41927;SDS011;27616;51.420;6.788;2023-07-22T05:07:23;6.20;;;3.13;;
41927;SDS011;27616;51.420;6.788;2023-07-22T05:09:49;6.60;;;3.15;;
41927;SDS011;27616;51.420;6.788;2023-07-22T05:12:15;8.25;;;3.78;;
41927;SDS011;27616;51.420;6.788;2023-07-22T05:14:40;7.60;;;3.67;;
41927;SDS011;27616;51.420;6.788;2023-07-22T05:17:06;6.30;;;3.20;;
41927;SDS011;27616;51.420;6.788;2023-07-22T05:19:31;8.10;;;3.33;;
41927;SDS011;27616;51.420;6.788;2023-07-22T05:21:57;6.10;;;3.55;;
41927;SDS011;27616;51.420;6.788;2023-07-22T05:24:23;7.47;;;3.33;;
41927;SDS011;27616;51.420;6.788;2023-07-22T05:26:48;8.18;;;3.55;;
41927;SDS011;27616;51.420;6.788;2023-07-22T05:29:14;8.80;;;3.55;;
41927;SDS011;27616;51.420;6.788;2023-07-22T05:31:39;9.05;;;3.63;;
41927;SDS011;27616;51.420;6.788;2023-07-22T05:34:06;8.70;;;3.55;;
41927;SDS011;27616;51.420;6.788;2023-07-22T05:36:31;7.63;;;3.28;;
41927;SDS011;27616;51.420;6.788;2023-07-22T05:38:57;8.00;;;3.90;;
41927;SDS011;27616;51.420;6.788;2023-07-22T05:41:23;7.15;;;3.05;;
41927;SDS011;27616;51.420;6.788;2023-07-22T05:43:48;8.18;;;3.20;;
41927;SDS011;27616;51.420;6.788;2023-07-22T05:46:14;6.97;;;3.05;;
41927;SDS011;27616;51.420;6.788;2023-07-22T05:48:39;14.77;;;4.53;;
41927;SDS011;27616;51.420;6.788;2023-07-22T05:51:05;7.80;;;3.47;;
41927;SDS011;27616;51.420;6.788;2023-07-22T05:53:32;7.63;;;3.67;;
41927;SDS011;27616;51.420;6.788;2023-07-22T05:55:58;7.70;;;3.47;;
41927;SDS011;27616;51.420;6.788;2023-07-22T05:58:24;7.40;;;3.70;;
41927;SDS011;27616;51.420;6.788;2023-07-22T06:00:49;8.10;;;3.80;;
41927;SDS011;27616;51.420;6.788;2023-07-22T06:03:16;8.88;;;3.55;;
41927;SDS011;27616;51.420;6.788;2023-07-22T06:05:42;8.40;;;3.63;;
41927;SDS011;27616;51.420;6.788;2023-07-22T06:08:08;10.57;;;4.38;;
41927;SDS011;27616;51.420;6.788;2023-07-22T06:10:34;19.58;;;9.35;;
41927;SDS011;27616;51.420;6.788;2023-07-22T06:13:00;16.75;;;6.40;;
41927;SDS011;27616;51.420;6.788;2023-07-22T06:15:25;10.85;;;5.47;;
41927;SDS011;27616;51.420;6.788;2023-07-22T06:17:52;9.73;;;4.15;;
41927;SDS011;27616;51.420;6.788;2023-07-22T06:20:17;12.18;;;4.15;;
41927;SDS011;27616;51.420;6.788;2023-07-22T06:22:43;7.68;;;3.60;;
41927;SDS011;27616;51.420;6.788;2023-07-22T06:25:09;10.45;;;3.47;;
41927;SDS011;27616;51.420;6.788;2023-07-22T06:27:34;6.25;;;3.33;;
41927;SDS011;27616;51.420;6.788;2023-07-22T06:30:03;10.60;;;4.15;;
41927;SDS011;27616;51.420;6.788;2023-07-22T06:32:29;9.07;;;4.00;;
41927;SDS011;27616;51.420;6.788;2023-07-22T06:34:55;9.27;;;3.50;;
41927;SDS011;27616;51.420;6.788;2023-07-22T06:37:22;9.50;;;4.32;;
41927;SDS011;27616;51.420;6.788;2023-07-22T06:39:48;10.40;;;4.30;;
41927;SDS011;27616;51.420;6.788;2023-07-22T06:42:14;9.05;;;4.63;;
41927;SDS011;27616;51.420;6.788;2023-07-22T06:44:39;9.10;;;3.85;;
41927;SDS011;27616;51.420;6.788;2023-07-22T06:47:05;9.40;;;4.43;;
41927;SDS011;27616;51.420;6.788;2023-07-22T06:49:31;8.88;;;4.65;;
41927;SDS011;27616;51.420;6.788;2023-07-22T06:51:57;11.20;;;4.55;;
41927;SDS011;27616;51.420;6.788;2023-07-22T06:54:23;12.07;;;5.57;;
41927;SDS011;27616;51.420;6.788;2023-07-22T06:56:48;11.75;;;4.45;;
41927;SDS011;27616;51.420;6.788;2023-07-22T06:59:14;10.20;;;4.80;;
41927;SDS011;27616;51.420;6.788;2023-07-22T07:01:40;11.27;;;4.45;;
41927;SDS011;27616;51.420;6.788;2023-07-22T07:04:06;11.98;;;4.82;;
41927;SDS011;27616;51.420;6.788;2023-07-22T07:06:31;10.38;;;4.50;;
41927;SDS011;27616;51.420;6.788;2023-07-22T07:09:00;25.92;;;12.23;;
41927;SDS011;27616;51.420;6.788;2023-07-22T07:11:26;21.23;;;10.98;;
41927;SDS011;27616;51.420;6.788;2023-07-22T07:13:53;11.15;;;5.63;;
41927;SDS011;27616;51.420;6.788;2023-07-22T07:16:20;10.50;;;4.70;;
41927;SDS011;27616;51.420;6.788;2023-07-22T07:18:50;17.73;;;7.82;;
41927;SDS011;27616;51.420;6.788;2023-07-22T07:21:17;9.57;;;4.97;;
41927;SDS011;27616;51.420;6.788;2023-07-22T07:23:43;13.02;;;4.97;;
41927;SDS011;27616;51.420;6.788;2023-07-22T07:26:09;9.35;;;4.65;;
41927;SDS011;27616;51.420;6.788;2023-07-22T07:28:34;9.82;;;5.05;;
41927;SDS011;27616;51.420;6.788;2023-07-22T07:31:00;11.57;;;5.32;;
41927;SDS011;27616;51.420;6.788;2023-07-22T07:33:25;11.75;;;5.43;;
41927;SDS011;27616;51.420;6.788;2023-07-22T07:35:51;10.68;;;5.03;;
41927;SDS011;27616;51.420;6.788;2023-07-22T07:38:17;8.90;;;4.00;;
41927;SDS011;27616;51.420;6.788;2023-07-22T07:40:42;15.27;;;5.60;;
41927;SDS011;27616;51.420;6.788;2023-07-22T07:43:08;11.85;;;5.53;;
41927;SDS011;27616;51.420;6.788;2023-07-22T07:45:34;10.40;;;4.80;;
41927;SDS011;27616;51.420;6.788;2023-07-22T07:48:03;12.30;;;5.43;;
41927;SDS011;27616;51.420;6.788;2023-07-22T07:50:29;10.20;;;4.88;;
41927;SDS011;27616;51.420;6.788;2023-07-22T07:52:54;12.75;;;5.53;;
41927;SDS011;27616;51.420;6.788;2023-07-22T07:55:20;11.05;;;5.53;;
41927;SDS011;27616;51.420;6.788;2023-07-22T07:57:46;11.25;;;4.45;;
41927;SDS011;27616;51.420;6.788;2023-07-22T08:00:11;11.25;;;5.22;;
41927;SDS011;27616;51.420;6.788;2023-07-22T08:02:37;8.98;;;4.50;;
41927;SDS011;27616;51.420;6.788;2023-07-22T08:05:03;11.57;;;5.85;;
41927;SDS011;27616;51.420;6.788;2023-07-22T08:07:29;11.43;;;4.43;;
41927;SDS011;27616;51.420;6.788;2023-07-22T08:09:55;9.18;;;4.80;;
41927;SDS011;27616;51.420;6.788;2023-07-22T08:12:22;7.53;;;4.47;;
41927;SDS011;27616;51.420;6.788;2023-07-22T08:14:48;10.18;;;4.85;;
41927;SDS011;27616;51.420;6.788;2023-07-22T08:17:14;10.07;;;4.07;;
41927;SDS011;27616;51.420;6.788;2023-07-22T08:19:39;6.28;;;3.85;;
41927;SDS011;27616;51.420;6.788;2023-07-22T08:22:05;9.27;;;4.45;;
41927;SDS011;27616;51.420;6.788;2023-07-22T08:24:31;9.95;;;3.92;;
41927;SDS011;27616;51.420;6.788;2023-07-22T08:26:57;8.93;;;4.50;;
41927;SDS011;27616;51.420;6.788;2023-07-22T08:29:23;8.90;;;4.60;;
41927;SDS011;27616;51.420;6.788;2023-07-22T08:31:50;8.50;;;4.75;;
41927;SDS011;27616;51.420;6.788;2023-07-22T08:34:15;10.25;;;4.40;;
41927;SDS011;27616;51.420;6.788;2023-07-22T08:36:41;8.75;;;4.28;;
41927;SDS011;27616;51.420;6.788;2023-07-22T08:39:07;9.43;;;5.28;;
41927;SDS011;27616;51.420;6.788;2023-07-22T08:41:33;7.93;;;4.00;;
41927;SDS011;27616;51.420;6.788;2023-07-22T08:44:00;9.00;;;4.30;;
41927;SDS011;27616;51.420;6.788;2023-07-22T08:46:29;9.30;;;4.25;;
41927;SDS011;27616;51.420;6.788;2023-07-22T08:48:59;7.85;;;4.18;;
41927;SDS011;27616;51.420;6.788;2023-07-22T08:51:25;8.20;;;4.43;;
41927;SDS011;27616;51.420;6.788;2023-07-22T08:53:55;8.15;;;4.07;;
41927;SDS011;27616;51.420;6.788;2023-07-22T08:56:24;6.00;;;3.15;;
41927;SDS011;27616;51.420;6.788;2023-07-22T08:58:51;6.70;;;3.58;;
41927;SDS011;27616;51.420;6.788;2023-07-22T09:01:17;10.52;;;5.30;;
41927;SDS011;27616;51.420;6.788;2023-07-22T09:03:43;5.95;;;3.20;;
41927;SDS011;27616;51.420;6.788;2023-07-22T09:06:10;7.90;;;3.50;;
41927;SDS011;27616;51.420;6.788;2023-07-22T09:08:36;9.70;;;3.63;;
41927;SDS011;27616;51.420;6.788;2023-07-22T09:11:03;7.00;;;3.72;;
41927;SDS011;27616;51.420;6.788;2023-07-22T09:13:29;7.22;;;3.90;;
41927;SDS011;27616;51.420;6.788;2023-07-22T09:15:58;8.57;;;4.72;;
41927;SDS011;27616;51.420;6.788;2023-07-22T09:18:24;7.00;;;3.53;;
41927;SDS011;27616;51.420;6.788;2023-07-22T09:20:51;6.65;;;3.92;;
41927;SDS011;27616;51.420;6.788;2023-07-22T09:23:16;6.03;;;3.33;;
41927;SDS011;27616;51.420;6.788;2023-07-22T09:25:42;6.43;;;2.90;;
41927;SDS011;27616;51.420;6.788;2023-07-22T09:28:08;8.43;;;4.88;;
41927;SDS011;27616;51.420;6.788;2023-07-22T09:30:35;5.93;;;3.08;;
41927;SDS011;27616;51.420;6.788;2023-07-22T09:36:04;7.20;;;3.25;;
41927;SDS011;27616;51.420;6.788;2023-07-22T09:38:23;6.20;;;2.72;;
41927;SDS011;27616;51.420;6.788;2023-07-22T09:40:49;5.93;;;2.83;;
41927;SDS011;27616;51.420;6.788;2023-07-22T09:43:15;7.68;;;3.97;;
41927;SDS011;27616;51.420;6.788;2023-07-22T09:45:41;6.18;;;2.72;;
41927;SDS011;27616;51.420;6.788;2023-07-22T09:48:07;7.15;;;2.72;;
41927;SDS011;27616;51.420;6.788;2023-07-22T09:50:34;6.63;;;2.67;;
41927;SDS011;27616;51.420;6.788;2023-07-22T09:53:01;7.32;;;2.70;;
41927;SDS011;27616;51.420;6.788;2023-07-22T09:55:29;5.50;;;2.97;;
41927;SDS011;27616;51.420;6.788;2023-07-22T09:57:57;6.40;;;2.40;;
41927;SDS011;27616;51.420;6.788;2023-07-22T10:00:30;5.05;;;2.50;;
41927;SDS011;27616;51.420;6.788;2023-07-22T10:02:58;5.13;;;2.50;;
41927;SDS011;27616;51.420;6.788;2023-07-22T10:05:26;4.30;;;2.20;;
41927;SDS011;27616;51.420;6.788;2023-07-22T10:07:57;5.35;;;2.45;;
41927;SDS011;27616;51.420;6.788;2023-07-22T10:10:25;5.68;;;2.38;;
41927;SDS011;27616;51.420;6.788;2023-07-22T10:13:02;4.50;;;2.60;;
41927;SDS011;27616;51.420;6.788;2023-07-22T10:15:30;4.88;;;2.50;;
41927;SDS011;27616;51.420;6.788;2023-07-22T10:17:58;6.60;;;3.40;;
41927;SDS011;27616;51.420;6.788;2023-07-22T10:20:24;4.57;;;2.25;;
41927;SDS011;27616;51.420;6.788;2023-07-22T10:22:50;4.75;;;2.55;;
41927;SDS011;27616;51.420;6.788;2023-07-22T10:25:17;4.15;;;1.98;;
41927;SDS011;27616;51.420;6.788;2023-07-22T10:27:43;3.35;;;1.85;;
41927;SDS011;27616;51.420;6.788;2023-07-22T10:30:10;3.40;;;2.08;;
41927;SDS011;27616;51.420;6.788;2023-07-22T10:32:38;4.40;;;2.40;;
41927;SDS011;27616;51.420;6.788;2023-07-22T10:35:16;9.02;;;4.97;;
41927;SDS011;27616;51.420;6.788;2023-07-22T10:37:47;10.30;;;5.07;;
41927;SDS011;27616;51.420;6.788;2023-07-22T10:42:53;7.78;;;3.88;;
41927;SDS011;27616;51.420;6.788;2023-07-22T10:45:49;6.70;;;3.35;;
41927;SDS011;27616;51.420;6.788;2023-07-22T10:48:13;3.92;;;2.05;;
41927;SDS011;27616;51.420;6.788;2023-07-22T10:50:43;4.60;;;2.58;;
41927;SDS011;27616;51.420;6.788;2023-07-22T10:53:28;4.32;;;1.80;;
41927;SDS011;27616;51.420;6.788;2023-07-22T11:06:30;5.30;;;2.50;;
41927;SDS011;27616;51.420;6.788;2023-07-22T11:08:56;3.95;;;2.42;;
41927;SDS011;27616;51.420;6.788;2023-07-22T11:11:33;3.55;;;2.00;;
41927;SDS011;27616;51.420;6.788;2023-07-22T11:14:13;4.15;;;1.75;;
41927;SDS011;27616;51.420;6.788;2023-07-22T11:16:43;3.15;;;1.52;;
41927;SDS011;27616;51.420;6.788;2023-07-22T11:19:12;2.13;;;1.42;;
41927;SDS011;27616;51.420;6.788;2023-07-22T11:21:39;3.22;;;1.75;;
41927;SDS011;27616;51.420;6.788;2023-07-22T11:24:05;3.15;;;1.73;;
41927;SDS011;27616;51.420;6.788;2023-07-22T11:26:32;5.18;;;3.10;;
41927;SDS011;27616;51.420;6.788;2023-07-22T11:29:02;3.40;;;1.65;;
41927;SDS011;27616;51.420;6.788;2023-07-22T11:31:31;2.80;;;1.52;;
41927;SDS011;27616;51.420;6.788;2023-07-22T11:33:58;4.72;;;1.90;;
41927;SDS011;27616;51.420;6.788;2023-07-22T11:36:24;2.92;;;1.92;;
41927;SDS011;27616;51.420;6.788;2023-07-22T11:38:53;4.57;;;2.05;;
41927;SDS011;27616;51.420;6.788;2023-07-22T11:41:22;6.38;;;1.85;;
41927;SDS011;27616;51.420;6.788;2023-07-22T11:43:49;4.45;;;2.10;;
41927;SDS011;27616;51.420;6.788;2023-07-22T11:46:15;3.75;;;2.20;;
41927;SDS011;27616;51.420;6.788;2023-07-22T11:48:48;4.00;;;1.80;;
41927;SDS011;27616;51.420;6.788;2023-07-22T11:51:19;3.15;;;1.70;;
41927;SDS011;27616;51.420;6.788;2023-07-22T11:53:46;4.22;;;1.77;;
41927;SDS011;27616;51.420;6.788;2023-07-22T11:56:27;2.47;;;1.40;;
41927;SDS011;27616;51.420;6.788;2023-07-22T11:58:56;4.15;;;1.83;;
41927;SDS011;27616;51.420;6.788;2023-07-22T12:01:22;2.53;;;1.38;;
41927;SDS011;27616;51.420;6.788;2023-07-22T12:03:48;3.38;;;1.73;;
41927;SDS011;27616;51.420;6.788;2023-07-22T12:06:15;3.67;;;1.90;;
41927;SDS011;27616;51.420;6.788;2023-07-22T12:08:44;4.68;;;2.15;;
41927;SDS011;27616;51.420;6.788;2023-07-22T12:13:44;3.00;;;1.48;;
41927;SDS011;27616;51.420;6.788;2023-07-22T12:16:11;4.82;;;1.30;;
41927;SDS011;27616;51.420;6.788;2023-07-22T12:18:45;2.20;;;1.20;;
41927;SDS011;27616;51.420;6.788;2023-07-22T12:21:11;3.53;;;1.48;;
41927;SDS011;27616;51.420;6.788;2023-07-22T12:23:38;8.32;;;4.40;;
41927;SDS011;27616;51.420;6.788;2023-07-22T12:26:04;4.28;;;1.90;;
41927;SDS011;27616;51.420;6.788;2023-07-22T12:28:30;3.17;;;1.40;;
41927;SDS011;27616;51.420;6.788;2023-07-22T12:30:55;6.05;;;3.00;;
41927;SDS011;27616;51.420;6.788;2023-07-22T12:33:22;3.70;;;1.75;;
41927;SDS011;27616;51.420;6.788;2023-07-22T12:35:55;3.00;;;1.50;;
41927;SDS011;27616;51.420;6.788;2023-07-22T12:38:21;5.03;;;2.70;;
41927;SDS011;27616;51.420;6.788;2023-07-22T12:40:46;3.22;;;1.63;;
41927;SDS011;27616;51.420;6.788;2023-07-22T12:43:12;3.45;;;1.98;;
41927;SDS011;27616;51.420;6.788;2023-07-22T12:45:38;2.88;;;1.85;;
41927;SDS011;27616;51.420;6.788;2023-07-22T12:48:03;4.10;;;1.88;;
41927;SDS011;27616;51.420;6.788;2023-07-22T12:50:30;3.13;;;1.85;;
41927;SDS011;27616;51.420;6.788;2023-07-22T12:52:59;5.40;;;2.50;;
41927;SDS011;27616;51.420;6.788;2023-07-22T12:55:25;3.90;;;1.63;;
41927;SDS011;27616;51.420;6.788;2023-07-22T12:57:51;3.63;;;1.40;;
41927;SDS011;27616;51.420;6.788;2023-07-22T13:00:17;3.08;;;1.80;;
41927;SDS011;27616;51.420;6.788;2023-07-22T13:02:42;1.83;;;1.20;;
41927;SDS011;27616;51.420;6.788;2023-07-22T13:05:08;2.90;;;1.50;;
41927;SDS011;27616;51.420;6.788;2023-07-22T13:07:34;3.45;;;1.42;;
41927;SDS011;27616;51.420;6.788;2023-07-22T13:10:00;2.15;;;1.40;;
41927;SDS011;27616;51.420;6.788;2023-07-22T13:12:28;3.13;;;1.67;;
41927;SDS011;27616;51.420;6.788;2023-07-22T13:14:54;2.90;;;1.70;;
41927;SDS011;27616;51.420;6.788;2023-07-22T13:17:20;2.50;;;1.58;;
41927;SDS011;27616;51.420;6.788;2023-07-22T13:19:46;3.53;;;1.63;;
41927;SDS011;27616;51.420;6.788;2023-07-22T13:22:11;3.25;;;1.85;;
41927;SDS011;27616;51.420;6.788;2023-07-22T13:24:37;3.38;;;1.65;;
41927;SDS011;27616;51.420;6.788;2023-07-22T13:27:03;4.20;;;1.83;;
41927;SDS011;27616;51.420;6.788;2023-07-22T13:29:29;2.92;;;1.65;;
41927;SDS011;27616;51.420;6.788;2023-07-22T13:31:55;3.22;;;1.95;;
41927;SDS011;27616;51.420;6.788;2023-07-22T13:34:21;4.03;;;2.03;;
41927;SDS011;27616;51.420;6.788;2023-07-22T13:36:47;3.42;;;1.98;;
41927;SDS011;27616;51.420;6.788;2023-07-22T13:39:12;2.83;;;1.63;;
41927;SDS011;27616;51.420;6.788;2023-07-22T13:41:38;4.35;;;1.75;;
41927;SDS011;27616;51.420;6.788;2023-07-22T13:44:04;2.75;;;1.65;;
41927;SDS011;27616;51.420;6.788;2023-07-22T13:46:30;3.25;;;1.70;;
41927;SDS011;27616;51.420;6.788;2023-07-22T13:48:55;3.20;;;1.60;;
41927;SDS011;27616;51.420;6.788;2023-07-22T13:51:21;3.40;;;1.55;;
41927;SDS011;27616;51.420;6.788;2023-07-22T13:53:47;5.70;;;2.10;;
41927;SDS011;27616;51.420;6.788;2023-07-22T13:56:12;3.55;;;1.70;;
41927;SDS011;27616;51.420;6.788;2023-07-22T13:58:38;5.88;;;1.70;;
41927;SDS011;27616;51.420;6.788;2023-07-22T14:01:03;4.97;;;1.88;;
41927;SDS011;27616;51.420;6.788;2023-07-22T14:03:29;3.88;;;1.67;;
41927;SDS011;27616;51.420;6.788;2023-07-22T14:05:54;3.03;;;1.63;;
41927;SDS011;27616;51.420;6.788;2023-07-22T14:08:21;4.97;;;2.10;;
41927;SDS011;27616;51.420;6.788;2023-07-22T14:10:46;3.40;;;1.63;;
41927;SDS011;27616;51.420;6.788;2023-07-22T14:13:12;3.25;;;1.52;;
41927;SDS011;27616;51.420;6.788;2023-07-22T14:15:38;4.40;;;1.52;;
41927;SDS011;27616;51.420;6.788;2023-07-22T14:18:04;3.90;;;1.40;;
41927;SDS011;27616;51.420;6.788;2023-07-22T14:20:29;4.13;;;2.15;;
41927;SDS011;27616;51.420;6.788;2023-07-22T14:22:55;3.88;;;1.60;;
41927;SDS011;27616;51.420;6.788;2023-07-22T14:25:22;2.80;;;1.50;;
41927;SDS011;27616;51.420;6.788;2023-07-22T14:27:47;4.43;;;1.92;;
41927;SDS011;27616;51.420;6.788;2023-07-22T14:30:13;2.88;;;1.80;;
41927;SDS011;27616;51.420;6.788;2023-07-22T14:32:39;3.10;;;1.60;;
41927;SDS011;27616;51.420;6.788;2023-07-22T14:35:05;3.25;;;1.98;;
41927;SDS011;27616;51.420;6.788;2023-07-22T14:37:31;3.38;;;1.67;;
41927;SDS011;27616;51.420;6.788;2023-07-22T14:39:56;4.03;;;2.30;;
41927;SDS011;27616;51.420;6.788;2023-07-22T14:42:22;3.25;;;1.70;;
41927;SDS011;27616;51.420;6.788;2023-07-22T14:44:47;3.72;;;1.60;;
41927;SDS011;27616;51.420;6.788;2023-07-22T14:47:13;3.00;;;1.42;;
41927;SDS011;27616;51.420;6.788;2023-07-22T14:49:39;5.10;;;1.50;;
41927;SDS011;27616;51.420;6.788;2023-07-22T14:52:04;5.82;;;2.50;;
41927;SDS011;27616;51.420;6.788;2023-07-22T14:54:31;2.58;;;1.50;;
41927;SDS011;27616;51.420;6.788;2023-07-22T14:56:57;4.75;;;2.10;;
41927;SDS011;27616;51.420;6.788;2023-07-22T14:59:23;4.63;;;2.53;;
41927;SDS011;27616;51.420;6.788;2023-07-22T15:01:48;4.65;;;2.75;;